createdAt,value
2019-01-23T00:00:39.350Z,79.57
2019-01-23T00:03:30.889Z,83.13
2019-01-23T00:06:00.285Z,79.97
2019-01-23T00:08:35.837Z,84.87
2019-01-23T00:11:05.235Z,71.87
2019-01-23T00:13:47.839Z,75.80
2019-01-23T00:16:17.348Z,88.83
2019-01-23T00:18:46.750Z,84.60
2019-01-23T00:21:16.206Z,82.73
2019-01-23T00:23:45.669Z,81.10
2019-01-23T00:26:16.752Z,80.77
2019-01-23T00:28:46.177Z,75.43
2019-01-23T00:31:15.748Z,67.70
2019-01-23T00:33:45.167Z,75.27
2019-01-23T00:36:14.650Z,85.03
2019-01-23T00:38:44.034Z,75.67
2019-01-23T00:41:19.582Z,68.83
2019-01-23T00:43:48.981Z,69.73
2019-01-23T00:46:31.019Z,75.40
2019-01-23T00:49:00.447Z,73.03
2019-01-23T00:51:29.895Z,72.20
2019-01-23T00:54:11.753Z,49.40
2019-01-23T00:56:41.191Z,61.67
2019-01-23T00:59:10.595Z,68.50
2019-01-23T01:01:40.430Z,66.20
2019-01-23T01:04:09.852Z,74.57
2019-01-23T01:06:47.384Z,72.97
2019-01-23T01:09:19.103Z,62.03
2019-01-23T01:11:48.581Z,72.97
2019-01-23T01:14:32.020Z,70.13
2019-01-23T01:17:07.343Z,70.77
2019-01-23T01:19:36.810Z,68.60
2019-01-23T01:22:06.767Z,65.13
2019-01-23T01:24:36.179Z,62.73
2019-01-23T01:27:06.073Z,70.83
2019-01-23T01:29:35.469Z,69.63
2019-01-23T01:32:09.488Z,72.63
2019-01-23T01:34:53.686Z,58.67
2019-01-23T01:37:27.676Z,60.37
2019-01-23T01:39:57.072Z,70.17
2019-01-23T01:42:26.492Z,71.87
2019-01-23T01:44:55.919Z,62.23
2019-01-23T01:47:25.368Z,64.13
2019-01-23T01:49:54.843Z,65.77
2019-01-23T01:52:42.622Z,62.67
2019-01-23T01:55:12.032Z,58.40
2019-01-23T01:57:41.503Z,63.23
2019-01-23T02:00:14.001Z,61.73
2019-01-23T02:02:46.087Z,63.93
2019-01-23T02:05:15.587Z,66.53
2019-01-23T02:07:45.004Z,62.27
2019-01-23T02:10:16.613Z,64.90
2019-01-23T02:12:46.157Z,65.07
2019-01-23T02:15:15.729Z,62.43
2019-01-23T02:17:45.144Z,60.43
2019-01-23T02:20:18.152Z,58.20
2019-01-23T02:22:47.834Z,64.57
2019-01-23T02:25:17.743Z,59.87
2019-01-23T02:27:51.141Z,61.70
2019-01-23T02:30:22.220Z,61.30
2019-01-23T02:32:53.279Z,59.93
2019-01-23T02:35:22.937Z,64.10
2019-01-23T02:37:56.955Z,59.20
2019-01-23T02:40:26.352Z,57.00
2019-01-23T02:42:55.750Z,55.00
2019-01-23T02:45:39.230Z,54.40
2019-01-23T02:48:08.757Z,53.53
2019-01-23T02:50:38.199Z,53.07
2019-01-23T02:53:07.690Z,51.47
2019-01-23T02:55:37.230Z,57.27
2019-01-23T02:58:06.660Z,49.30
2019-01-23T03:00:36.069Z,60.10
2019-01-23T03:03:05.518Z,52.87
2019-01-23T03:05:34.922Z,47.43
2019-01-23T03:08:04.323Z,53.37
2019-01-23T03:10:36.586Z,49.50
2019-01-23T03:13:32.636Z,52.37
2019-01-23T03:16:04.818Z,51.13
2019-01-23T03:18:34.287Z,48.30
2019-01-23T03:21:07.546Z,44.53
2019-01-23T03:23:37.173Z,47.40
2019-01-23T03:26:06.594Z,48.40
2019-01-23T03:28:36.201Z,46.63
2019-01-23T03:31:05.641Z,46.57
2019-01-23T03:33:35.077Z,49.37
2019-01-23T03:36:05.200Z,49.77
2019-01-23T03:38:34.706Z,46.83
2019-01-23T03:41:04.156Z,51.00
2019-01-23T03:43:46.478Z,47.20
2019-01-23T03:46:16.024Z,50.83
2019-01-23T03:48:48.379Z,46.10
2019-01-23T03:51:27.415Z,44.77
2019-01-23T03:54:10.456Z,47.30
2019-01-23T03:56:42.547Z,40.57
2019-01-23T03:59:19.705Z,49.47
2019-01-23T04:01:49.169Z,41.03
2019-01-23T04:04:18.737Z,48.27
2019-01-23T04:06:48.175Z,46.93
2019-01-23T04:09:17.604Z,46.80
2019-01-23T04:11:47.082Z,46.43
2019-01-23T04:14:36.571Z,46.50
2019-01-23T04:17:07.690Z,49.63
2019-01-23T04:19:37.127Z,49.43
2019-01-23T04:22:06.691Z,49.03
2019-01-23T04:24:36.188Z,48.53
2019-01-23T04:27:05.687Z,48.50
2019-01-23T04:29:39.718Z,49.33
2019-01-23T04:32:09.209Z,50.07
2019-01-23T04:34:38.667Z,49.67
2019-01-23T04:37:08.126Z,51.83
2019-01-23T04:39:37.538Z,50.77
2019-01-23T04:42:06.985Z,47.00
2019-01-23T04:44:54.465Z,50.20
2019-01-23T04:47:26.535Z,47.93
2019-01-23T04:50:10.200Z,49.90
2019-01-23T04:52:48.475Z,50.87
2019-01-23T04:55:17.915Z,44.50
2019-01-23T04:57:47.352Z,47.13
2019-01-23T05:00:18.392Z,47.77
2019-01-23T05:02:47.823Z,43.73
2019-01-23T05:05:17.246Z,45.97
2019-01-23T05:07:46.721Z,44.47
2019-01-23T05:10:16.151Z,47.60
2019-01-23T05:12:45.652Z,48.53
2019-01-23T05:15:15.195Z,52.00
2019-01-23T05:17:44.668Z,48.83
2019-01-23T05:20:15.620Z,45.93
2019-01-23T05:22:46.709Z,46.60
2019-01-23T05:25:16.214Z,49.03
2019-01-23T05:27:45.755Z,49.00
2019-01-23T05:30:18.379Z,49.50
2019-01-23T05:32:47.857Z,49.50
2019-01-23T05:35:24.834Z,49.53
2019-01-23T05:37:54.338Z,50.90
2019-01-23T05:40:45.793Z,50.03
2019-01-23T05:43:15.378Z,52.40
2019-01-23T05:45:44.865Z,53.30
2019-01-23T05:48:14.349Z,52.20
2019-01-23T05:50:46.555Z,48.70
2019-01-23T05:53:27.908Z,49.17
2019-01-23T05:56:04.380Z,49.00
2019-01-23T05:58:35.491Z,50.17
2019-01-23T06:01:10.990Z,53.10
2019-01-23T06:03:45.238Z,50.03
2019-01-23T06:06:25.537Z,51.17
2019-01-23T06:08:55.006Z,47.93
2019-01-23T06:11:24.452Z,53.43
2019-01-23T06:13:58.500Z,52.27
2019-01-23T06:16:28.011Z,46.20
2019-01-23T06:18:59.008Z,50.77
2019-01-23T06:21:47.822Z,49.47
2019-01-23T06:24:35.705Z,47.63
2019-01-23T06:27:05.136Z,52.07
2019-01-23T06:29:34.855Z,53.47
2019-01-23T06:32:04.588Z,57.27
2019-01-23T06:34:35.088Z,54.10
2019-01-23T06:37:07.166Z,54.10
2019-01-23T06:39:36.604Z,50.93
2019-01-23T06:42:06.033Z,52.70
2019-01-23T06:44:40.034Z,48.93
2019-01-23T06:47:16.890Z,54.50
2019-01-23T06:49:59.240Z,51.73
2019-01-23T06:52:44.009Z,55.93
2019-01-23T06:55:16.102Z,54.07
2019-01-23T06:57:46.145Z,54.53
2019-01-23T07:00:18.244Z,57.77
2019-01-23T07:03:03.585Z,52.73
2019-01-23T07:05:35.418Z,56.63
2019-01-23T07:08:04.828Z,56.20
2019-01-23T07:10:34.284Z,54.90
2019-01-23T07:13:06.358Z,55.60
2019-01-23T07:15:35.811Z,51.07
2019-01-23T07:18:22.109Z,59.20
2019-01-23T07:20:54.839Z,57.20
2019-01-23T07:23:24.516Z,54.63
2019-01-23T07:25:55.630Z,56.43
2019-01-23T07:28:49.139Z,55.77
2019-01-23T07:31:18.852Z,55.83
2019-01-23T07:33:49.569Z,52.97
2019-01-23T07:36:27.009Z,59.87
2019-01-23T07:38:56.568Z,54.43
2019-01-23T07:41:26.077Z,57.50
2019-01-23T07:43:55.517Z,57.67
2019-01-23T07:46:24.944Z,53.97
2019-01-23T07:48:54.416Z,58.37
2019-01-23T07:51:31.627Z,55.50
2019-01-23T07:54:01.054Z,61.73
2019-01-23T07:56:33.415Z,52.83
2019-01-23T07:59:05.457Z,56.60
2019-01-23T08:01:35.031Z,58.50
2019-01-23T08:04:04.599Z,58.63
2019-01-23T08:06:34.027Z,57.53
2019-01-23T08:09:10.915Z,56.17
2019-01-23T08:11:41.104Z,44.57
2019-01-23T08:14:16.195Z,56.60
2019-01-23T08:16:45.673Z,57.43
2019-01-23T08:19:15.159Z,57.13
2019-01-23T08:21:44.589Z,56.43
2019-01-23T08:24:16.587Z,59.30
2019-01-23T08:26:46.204Z,54.73
2019-01-23T08:29:15.622Z,55.40
2019-01-23T08:31:46.815Z,57.83
2019-01-23T08:34:17.589Z,52.70
2019-01-23T08:36:47.069Z,55.10
2019-01-23T08:39:19.366Z,53.20
2019-01-23T08:41:47.895Z,55.17
2019-01-23T08:44:17.333Z,55.33
2019-01-23T08:46:49.120Z,54.37
2019-01-23T08:49:18.603Z,53.50
2019-01-23T08:51:48.031Z,57.37
2019-01-23T08:54:17.502Z,50.90
2019-01-23T08:56:59.908Z,52.47
2019-01-23T08:59:29.463Z,50.73
2019-01-23T09:02:06.611Z,51.27
2019-01-23T09:04:38.608Z,51.60
2019-01-23T09:07:08.112Z,54.37
2019-01-23T09:09:37.486Z,52.47
2019-01-23T09:12:06.905Z,52.33
2019-01-23T09:14:41.621Z,52.50
2019-01-23T09:17:13.533Z,57.00
2019-01-23T09:19:42.939Z,56.00
2019-01-23T09:22:12.459Z,53.93
2019-01-23T09:24:44.964Z,47.83
2019-01-23T09:27:24.193Z,52.47
2019-01-23T09:29:53.700Z,52.97
2019-01-23T09:32:29.159Z,52.97
2019-01-23T09:35:02.302Z,53.93
2019-01-23T09:37:36.564Z,52.57
2019-01-23T09:40:12.010Z,54.67
2019-01-23T09:42:44.585Z,52.70
2019-01-23T09:45:20.130Z,53.50
2019-01-23T09:48:14.470Z,51.17
2019-01-23T09:50:57.838Z,50.63
2019-01-23T09:53:30.471Z,52.27
2019-01-23T09:56:02.289Z,50.17
2019-01-23T09:58:33.373Z,51.23
2019-01-23T10:01:08.540Z,54.57
2019-01-23T10:03:56.159Z,49.20
2019-01-23T10:06:25.647Z,53.43
2019-01-23T10:08:57.943Z,49.07
2019-01-23T10:11:27.362Z,49.27
2019-01-23T10:13:56.780Z,54.10
2019-01-23T10:16:26.274Z,45.80
2019-01-23T10:18:59.072Z,44.20
2019-01-23T10:21:28.602Z,47.03
2019-01-23T10:23:58.166Z,48.87
2019-01-23T10:26:27.624Z,48.50
2019-01-23T10:28:57.122Z,39.73
2019-01-23T10:34:32.454Z,50.83
2019-01-23T10:37:20.358Z,47.50
2019-01-23T10:39:53.736Z,46.70
2019-01-23T10:42:23.284Z,46.63
2019-01-23T10:44:52.752Z,52.10
2019-01-23T10:47:40.554Z,49.07
2019-01-23T10:50:36.518Z,49.93
2019-01-23T10:53:12.017Z,44.57
2019-01-23T10:55:52.655Z,46.03
2019-01-23T10:58:22.173Z,46.77
2019-01-23T11:00:51.599Z,45.70
2019-01-23T11:03:23.880Z,49.57
2019-01-23T11:05:53.278Z,46.17
2019-01-23T11:08:22.743Z,44.37
2019-01-23T11:10:55.166Z,42.80
2019-01-23T11:13:24.658Z,46.97
2019-01-23T11:15:54.142Z,40.40
2019-01-23T11:18:23.708Z,45.53
2019-01-23T11:20:58.878Z,43.73
2019-01-23T11:23:28.396Z,43.40
2019-01-23T11:26:00.506Z,44.03
2019-01-23T11:28:29.952Z,46.27
2019-01-23T11:30:59.372Z,43.03
2019-01-23T11:33:28.885Z,45.83
2019-01-23T11:35:58.359Z,43.43
2019-01-23T11:38:38.876Z,46.00
2019-01-23T11:41:08.287Z,43.77
2019-01-23T11:43:40.580Z,41.30
2019-01-23T11:46:11.703Z,41.43
2019-01-23T11:48:42.913Z,43.80
2019-01-23T11:51:12.401Z,45.10
2019-01-23T11:53:41.649Z,50.60
2019-01-23T11:56:29.455Z,41.83
2019-01-23T11:58:58.917Z,42.73
2019-01-23T12:01:35.441Z,43.83
2019-01-23T12:04:06.680Z,40.93
2019-01-23T12:06:36.140Z,42.63
2019-01-23T12:09:07.269Z,46.70
2019-01-23T12:11:38.386Z,41.33
2019-01-23T12:14:07.883Z,45.00
2019-01-23T12:16:43.331Z,41.97
2019-01-23T12:19:13.799Z,39.77
2019-01-23T12:21:53.016Z,44.33
2019-01-23T12:24:22.471Z,40.70
2019-01-23T12:27:04.236Z,43.70
2019-01-23T12:29:41.349Z,43.80
2019-01-23T12:32:12.400Z,41.60
2019-01-23T12:34:46.399Z,42.73
2019-01-23T12:37:15.809Z,39.23
2019-01-23T12:39:45.446Z,46.93
2019-01-23T12:42:27.715Z,45.30
2019-01-23T12:44:57.252Z,44.57
2019-01-23T12:47:26.825Z,46.93
2019-01-23T12:49:58.250Z,49.03
2019-01-23T12:52:27.775Z,46.30
2019-01-23T12:54:57.255Z,46.73
2019-01-23T12:57:26.705Z,49.23
2019-01-23T12:59:56.132Z,47.83
2019-01-23T13:02:25.558Z,49.20
2019-01-23T13:04:55.000Z,45.37
2019-01-23T13:07:24.520Z,45.37
2019-01-23T13:09:54.222Z,45.90
2019-01-23T13:12:28.345Z,44.17
2019-01-23T13:14:59.353Z,46.10
2019-01-23T13:17:31.874Z,44.00
2019-01-23T13:20:01.401Z,49.73
2019-01-23T13:22:30.977Z,43.60
2019-01-23T13:25:04.005Z,41.90
2019-01-23T13:27:33.588Z,43.60
2019-01-23T13:30:11.031Z,40.77
2019-01-23T13:32:40.767Z,40.23
2019-01-23T13:35:13.369Z,43.37
2019-01-23T13:37:49.131Z,42.47
2019-01-23T13:40:22.857Z,44.37
2019-01-23T13:42:52.336Z,45.00
2019-01-23T13:45:26.319Z,49.67
2019-01-23T13:47:56.037Z,49.60
2019-01-23T13:50:25.522Z,46.33
2019-01-23T13:52:55.090Z,42.93
2019-01-23T13:55:24.539Z,43.27
2019-01-23T13:57:54.014Z,47.50
2019-01-23T14:00:29.562Z,44.73
2019-01-23T14:03:01.861Z,42.97
2019-01-23T14:05:31.329Z,38.77
2019-01-23T14:08:00.817Z,39.87
2019-01-23T14:10:36.539Z,41.73
2019-01-23T14:13:06.089Z,44.50
2019-01-23T14:15:37.561Z,45.43
2019-01-23T14:18:07.331Z,41.00
2019-01-23T14:20:45.139Z,41.77
2019-01-23T14:23:14.718Z,45.63
2019-01-23T14:25:49.232Z,46.50
2019-01-23T14:28:18.739Z,45.80
2019-01-23T14:30:48.287Z,42.57
2019-01-23T14:33:33.008Z,42.77
2019-01-23T14:36:06.771Z,44.27
2019-01-23T14:38:39.093Z,42.10
2019-01-23T14:41:08.910Z,44.70
2019-01-23T14:43:38.304Z,41.87
2019-01-23T14:46:07.764Z,41.80
2019-01-23T14:48:39.960Z,46.57
2019-01-23T14:51:18.639Z,48.63
2019-01-23T14:53:48.219Z,46.33
2019-01-23T14:56:17.646Z,47.07
2019-01-23T14:58:51.902Z,54.63
2019-01-23T15:01:21.414Z,53.43
2019-01-23T15:04:10.583Z,45.73
2019-01-23T15:06:46.150Z,49.53
2019-01-23T15:09:34.012Z,52.47
2019-01-23T15:12:05.159Z,50.83
2019-01-23T15:14:46.465Z,55.23
2019-01-23T15:17:33.609Z,49.80
2019-01-23T15:20:15.244Z,53.57
2019-01-23T15:22:47.688Z,54.50
2019-01-23T15:25:22.916Z,59.57
2019-01-23T15:27:54.989Z,55.07
2019-01-23T15:30:25.444Z,55.03
2019-01-23T15:33:00.651Z,58.07
2019-01-23T15:35:48.150Z,57.17
2019-01-23T15:38:20.529Z,52.23
2019-01-23T15:40:52.625Z,53.10
2019-01-23T15:43:23.383Z,52.87
2019-01-23T15:45:55.633Z,53.33
2019-01-23T15:48:25.126Z,49.47
2019-01-23T15:50:54.589Z,46.17
2019-01-23T15:53:24.007Z,55.13
2019-01-23T15:55:57.132Z,53.50
2019-01-23T15:58:27.198Z,55.30
2019-01-23T16:00:56.753Z,55.27
2019-01-23T16:03:26.197Z,49.30
2019-01-23T16:05:55.595Z,54.77
2019-01-23T16:08:28.098Z,53.60
2019-01-23T16:10:57.551Z,49.13
2019-01-23T16:13:26.985Z,49.83
2019-01-23T16:16:15.762Z,46.87
2019-01-23T16:18:45.203Z,55.23
2019-01-23T16:21:14.620Z,53.67
2019-01-23T16:23:44.059Z,44.77
2019-01-23T16:26:24.581Z,48.20
2019-01-23T16:28:54.027Z,53.10
2019-01-23T16:31:27.985Z,54.27
2019-01-23T16:33:57.403Z,48.53
2019-01-23T16:36:26.874Z,54.17
2019-01-23T16:38:56.320Z,56.40
2019-01-23T16:41:34.678Z,50.77
2019-01-23T16:44:04.432Z,52.93
2019-01-23T16:46:36.714Z,59.60
2019-01-23T16:49:06.201Z,61.73
2019-01-23T16:51:35.833Z,61.03
2019-01-23T16:54:05.259Z,65.40
2019-01-23T16:56:34.786Z,60.30
2019-01-23T16:59:04.374Z,57.57
2019-01-23T17:01:36.599Z,59.47
2019-01-23T17:04:06.016Z,59.63
2019-01-23T17:06:38.649Z,60.00
2019-01-23T17:09:14.104Z,62.00
2019-01-23T17:11:48.117Z,59.13
2019-01-23T17:14:17.519Z,62.67
2019-01-23T17:16:46.940Z,58.47
2019-01-23T17:19:16.351Z,59.97
2019-01-23T17:21:45.846Z,55.53
2019-01-23T17:24:15.288Z,63.10
2019-01-23T17:26:44.727Z,61.50
2019-01-23T17:29:15.379Z,58.43
2019-01-23T17:31:44.915Z,64.70
2019-01-23T17:34:14.311Z,66.17
2019-01-23T17:36:46.379Z,62.97
2019-01-23T17:39:15.847Z,63.27
2019-01-23T17:41:46.827Z,67.43
2019-01-23T17:44:17.837Z,64.93
2019-01-23T17:46:47.768Z,65.93
2019-01-23T17:49:17.231Z,62.70
2019-01-23T17:51:46.689Z,62.97
2019-01-23T17:54:19.113Z,64.70
2019-01-23T17:56:52.797Z,67.90
2019-01-23T17:59:28.135Z,68.90
2019-01-23T18:02:02.061Z,69.53
2019-01-23T18:04:31.551Z,74.90
2019-01-23T18:07:02.609Z,71.00
2019-01-23T18:09:39.539Z,69.30
2019-01-23T18:12:08.963Z,73.80
2019-01-23T18:14:39.984Z,72.37
2019-01-23T18:17:23.453Z,78.33
2019-01-23T18:19:53.014Z,78.93
2019-01-23T18:22:40.925Z,74.03
2019-01-23T18:25:22.349Z,72.33
2019-01-23T18:28:10.202Z,72.20
2019-01-23T18:31:15.850Z,71.63
2019-01-23T18:33:48.451Z,73.53
2019-01-23T18:36:21.096Z,74.30
2019-01-23T18:38:53.669Z,68.70
2019-01-23T18:41:37.307Z,70.37
2019-01-23T18:44:12.907Z,69.67
2019-01-23T18:46:48.987Z,68.47
2019-01-23T18:49:21.634Z,63.93
2019-01-23T18:51:54.541Z,70.27
2019-01-23T18:54:34.858Z,70.83
2019-01-23T18:57:04.657Z,63.90
2019-01-23T18:59:34.122Z,71.73
2019-01-23T19:02:06.294Z,67.00
2019-01-23T19:04:35.731Z,63.47
2019-01-23T19:07:05.180Z,74.73
2019-01-23T19:09:34.645Z,70.57
2019-01-23T19:12:05.916Z,72.97
2019-01-23T19:14:35.517Z,73.27
2019-01-23T19:17:05.193Z,71.83
2019-01-23T19:19:34.651Z,74.17
2019-01-23T19:22:04.132Z,76.17
2019-01-23T19:24:33.580Z,70.67
2019-01-23T19:27:05.596Z,76.20
2019-01-23T19:29:41.017Z,70.93
2019-01-23T19:32:16.525Z,71.70
2019-01-23T19:34:46.012Z,73.53
2019-01-23T19:37:15.470Z,71.67
2019-01-23T19:39:45.681Z,76.13
2019-01-23T19:42:15.346Z,74.70
2019-01-23T19:44:44.815Z,78.87
2019-01-23T19:47:15.438Z,70.83
2019-01-23T19:49:49.386Z,75.20
2019-01-23T19:52:20.580Z,73.97
2019-01-23T19:54:52.975Z,69.53
2019-01-23T19:57:25.278Z,77.93
2019-01-23T19:59:54.773Z,71.43
2019-01-23T20:02:42.373Z,73.43
2019-01-23T20:05:17.492Z,76.53
2019-01-23T20:07:59.155Z,72.30
2019-01-23T20:10:30.176Z,72.53
2019-01-23T20:13:10.402Z,74.97
2019-01-23T20:15:42.815Z,70.57
2019-01-23T20:18:15.041Z,73.90
2019-01-23T20:20:47.271Z,65.77
2019-01-23T20:23:16.803Z,75.53
2019-01-23T20:25:46.228Z,71.13
2019-01-23T20:28:17.276Z,72.93
2019-01-23T20:31:06.121Z,69.67
2019-01-23T20:33:35.576Z,66.83
2019-01-23T20:36:04.971Z,63.53
2019-01-23T20:38:34.485Z,63.97
2019-01-23T20:41:07.293Z,71.27
2019-01-23T20:43:36.740Z,69.40
2019-01-23T20:46:07.726Z,64.67
2019-01-23T20:48:37.340Z,64.90
2019-01-23T20:51:06.761Z,66.50
2019-01-23T20:53:36.200Z,73.67
2019-01-23T20:56:05.736Z,70.07
2019-01-23T20:58:35.156Z,68.30
2019-01-23T21:01:04.604Z,65.13
2019-01-23T21:03:35.138Z,68.27
2019-01-23T21:06:06.445Z,68.33
2019-01-23T21:08:35.890Z,71.07
2019-01-23T21:11:24.700Z,65.53
2019-01-23T21:13:54.098Z,69.37
2019-01-23T21:16:28.659Z,67.87
2019-01-23T21:18:58.074Z,63.13
2019-01-23T21:21:27.591Z,65.13
2019-01-23T21:23:57.083Z,69.60
2019-01-23T21:26:26.651Z,66.23
2019-01-23T21:28:56.187Z,67.67
2019-01-23T21:31:25.705Z,66.87
2019-01-23T21:33:55.132Z,67.87
2019-01-23T21:36:24.571Z,64.27
2019-01-23T21:38:54.055Z,64.77
2019-01-23T21:41:26.137Z,62.73
2019-01-23T21:43:55.606Z,60.53
2019-01-23T21:46:26.146Z,69.93
2019-01-23T21:48:55.682Z,65.73
2019-01-23T21:51:25.312Z,65.30
2019-01-23T21:54:14.840Z,67.13
2019-01-23T21:57:03.777Z,64.30
2019-01-23T21:59:42.860Z,72.40
2019-01-23T22:02:21.101Z,59.87
2019-01-23T22:04:56.382Z,66.47
2019-01-23T22:07:25.870Z,67.77
2019-01-23T22:09:55.336Z,63.77
2019-01-23T22:12:24.833Z,62.53
2019-01-23T22:14:54.247Z,61.17
2019-01-23T22:17:33.164Z,63.00
2019-01-23T22:20:08.392Z,62.03
2019-01-23T22:22:37.843Z,63.60
2019-01-23T22:25:09.029Z,66.27
2019-01-23T22:27:38.539Z,67.53
2019-01-23T22:30:11.097Z,62.07
2019-01-23T22:32:40.634Z,68.63
2019-01-23T22:35:12.931Z,62.17
2019-01-23T22:38:00.061Z,65.83
2019-01-23T22:40:29.498Z,66.57
2019-01-23T22:43:00.605Z,67.93
2019-01-23T22:45:49.406Z,60.57
2019-01-23T22:48:23.587Z,67.60
2019-01-23T22:50:57.591Z,70.93
2019-01-23T22:53:27.050Z,72.27
2019-01-23T22:56:17.532Z,67.57
2019-01-23T22:58:59.899Z,69.60
2019-01-23T23:01:29.418Z,67.57
2019-01-23T23:04:03.475Z,59.57
2019-01-23T23:06:31.646Z,63.17
2019-01-23T23:09:01.100Z,65.40
2019-01-23T23:11:30.650Z,66.43
2019-01-23T23:14:00.066Z,66.60
2019-01-23T23:16:32.274Z,65.47
2019-01-23T23:19:03.323Z,69.67
2019-01-23T23:21:35.531Z,61.73
2019-01-23T23:24:04.942Z,71.23
2019-01-23T23:26:34.521Z,67.73
2019-01-23T23:29:22.300Z,65.50
2019-01-23T23:31:53.394Z,66.90
2019-01-23T23:34:25.650Z,64.80
2019-01-23T23:36:55.166Z,69.97
2019-01-23T23:39:25.239Z,67.07
2019-01-23T23:41:56.276Z,64.63
2019-01-23T23:44:25.823Z,70.03
2019-01-23T23:47:14.694Z,69.00
2019-01-23T23:49:44.142Z,67.97
2019-01-23T23:52:39.250Z,67.70
2019-01-23T23:55:12.629Z,63.27
2019-01-23T23:57:44.926Z,70.40
